Darstellungsparameter: Aktuell verwendete Einstellungen:
Skalierung der Graphiken ... ?
xyx+y,   Skalierungsfaktor:      Skalierung: Modus: x, Faktor: 1
Darstellungszeitraum ... ?
Vom - - bis: - -   Zeitraum: 03.07.2005 - 03.07.2005
Min/Max/Avg-Anzeige ... ?
Zeige MMA aktuell
Zeige MMA Monat
Zeige MMA alles
Zeige --A aktuell
Zeige --A Monat
Zeige --A alles
Keine MMA-Anzeige
MMA:
Keine MMA-Graphiken
MMA-Basis: 03.07.2005 - 03.07.2005
Quicknavigation für Darstellung... ?
Tage:      1T, 2T, 3T, 5T -1T -2T -3T -5T +1T +2T +3T +5T
Wochen: 1W, 2W, 3W -1W -2W -3W +1W +2W +3W
Monate: 1M, 3M, 6M -1M -3M -6M +1M +3M +6M
Jahre:    1J, 3J, 5J, 10J -1J -3J -5J -10J +1J +3J +5J +10J
Nutze für die Darstellung ... ?
Originaldaten oder Mittelwerte auf ...
Stundenbasis Tagesbasis Wochenbasis
Monatsbasis Jahresbasis      Datenbasis: Original-Daten
Darstellen als:
Statistik (Auto) Statistik J:M      Darstellung:
Zur Graphik,    zurück zur Übersicht aller Sensoren.
 
Tabellarische Datenbersicht: ?
 
Sensor: Nr:Datum:Temp:Abs-Feuchte:Windchill:Wind:
Aussen-T/F 1 03-07-2005 00:00:04 18.9 C 14.09 g/m*3 18.9 C 0 km/h
2 03-07-2005 00:12:04 18.9 C 14.09 g/m*3 18.9 C 0 km/h
3 03-07-2005 00:24:03 18.9 C 13.93 g/m*3 18.9 C 0 km/h
4 03-07-2005 00:36:04 18.9 C 13.93 g/m*3 18.9 C 0 km/h
5 03-07-2005 00:48:03 18.9 C 13.93 g/m*3 18.9 C 0 km/h
6 03-07-2005 01:00:03 18.8 C 13.85 g/m*3 18.8 C 0 km/h
7 03-07-2005 01:12:05 18.9 C 13.93 g/m*3 18.9 C 0 km/h
8 03-07-2005 01:24:03 18.9 C 13.93 g/m*3 18.9 C 0 km/h
9 03-07-2005 01:36:03 18.8 C 13.85 g/m*3 18.8 C 0 km/h
10 03-07-2005 01:48:01 18.6 C 13.69 g/m*3 18.6 C 0 km/h
11 03-07-2005 02:00:01 18.6 C 13.69 g/m*3 18.6 C 0 km/h
12 03-07-2005 02:12:01 18.5 C 13.77 g/m*3 18.5 C 0 km/h
13 03-07-2005 02:24:02 18.5 C 13.77 g/m*3 18.5 C 0 km/h
14 03-07-2005 02:36:02 18.5 C 13.77 g/m*3 18.5 C 0 km/h
15 03-07-2005 02:49:06 18.5 C 13.77 g/m*3 18.5 C 0 km/h
16 03-07-2005 03:01:06 18.5 C 13.77 g/m*3 18.5 C 0 km/h
17 03-07-2005 03:13:06 18.6 C 13.85 g/m*3 18.6 C 0 km/h
18 03-07-2005 03:25:06 18.6 C 13.85 g/m*3 18.6 C 0 km/h
19 03-07-2005 03:37:03 18.6 C 13.85 g/m*3 18.6 C 0 km/h
20 03-07-2005 03:49:03 18.6 C 13.85 g/m*3 18.6 C 0 km/h
21 03-07-2005 04:01:04 18.6 C 13.69 g/m*3 18.6 C 0 km/h
22 03-07-2005 04:13:04 18.6 C 13.85 g/m*3 18.6 C 0 km/h
23 03-07-2005 04:25:03 18.6 C 13.69 g/m*3 18.6 C 0 km/h
24 03-07-2005 04:37:04 18.6 C 13.69 g/m*3 18.6 C 0 km/h
25 03-07-2005 04:49:04 18.5 C 13.61 g/m*3 18.5 C 0 km/h
Sensor: Nr:Datum:Temp:Abs-Feuchte:Windchill:Wind:
Aussen-T/F 26 03-07-2005 05:01:05 18.3 C 13.45 g/m*3 18.3 C 0 km/h
27 03-07-2005 05:13:05 18.1 C 13.44 g/m*3 18.1 C 0 km/h
28 03-07-2005 05:25:03 17.9 C 13.44 g/m*3 17.9 C 0 km/h
29 03-07-2005 05:37:03 17.6 C 13.2 g/m*3 17.6 C 0 km/h
30 03-07-2005 05:49:03 17.5 C 13.12 g/m*3 17.5 C 0 km/h
31 03-07-2005 06:01:02 17.4 C 13.19 g/m*3 17.4 C 0 km/h
32 03-07-2005 06:13:02 17.3 C 13.11 g/m*3 17.3 C 0 km/h
33 03-07-2005 06:25:03 17.2 C 13.03 g/m*3 17.2 C 0 km/h
34 03-07-2005 06:37:02 17.3 C 13.11 g/m*3 17.3 C 0 km/h
35 03-07-2005 06:49:02 17.5 C 13.42 g/m*3 17.5 C 0 km/h
36 03-07-2005 07:01:02 17.9 C 13.74 g/m*3 17.9 C 0 km/h
37 03-07-2005 07:13:02 18.4 C 14 g/m*3 18.4 C 0 km/h
38 03-07-2005 07:25:02 18.8 C 14.01 g/m*3 18.8 C 0 km/h
39 03-07-2005 07:37:01 19.1 C 13.61 g/m*3 19.1 C 0 km/h
40 03-07-2005 07:49:02 19.5 C 13.76 g/m*3 19.5 C 0 km/h
41 03-07-2005 08:01:03 19.6 C 13.67 g/m*3 19.6 C 0 km/h
42 03-07-2005 08:13:03 20 C 13.65 g/m*3 20 C 0 km/h
43 03-07-2005 08:25:02 20.2 C 13.64 g/m*3 20.2 C 0 km/h
44 03-07-2005 08:37:03 20.4 C 13.62 g/m*3 20.4 C 0 km/h
45 03-07-2005 08:49:02 20.5 C 13.35 g/m*3 20.5 C 0 km/h
46 03-07-2005 09:01:02 20.4 C 13.44 g/m*3 20.4 C 0 km/h
47 03-07-2005 09:13:02 20.8 C 13.76 g/m*3 20.8 C 0 km/h
48 03-07-2005 09:25:02 21 C 13.19 g/m*3 21 C 0 km/h
49 03-07-2005 09:37:03 20.9 C 13.3 g/m*3 20.9 C 0 km/h
50 03-07-2005 09:49:03 21.1 C 13.45 g/m*3 21.1 C 0 km/h
Sensor: Nr:Datum:Temp:Abs-Feuchte:Windchill:Wind:
Aussen-T/F 51 03-07-2005 10:01:03 21.4 C 13.12 g/m*3 21.4 C 0 km/h
52 03-07-2005 10:13:03 21.6 C 13.47 g/m*3 21.6 C 0 km/h
53 03-07-2005 10:25:03 22.8 C 12.8 g/m*3 22.8 C 0 km/h
54 03-07-2005 10:37:03 23.7 C 13.05 g/m*3 23.7 C 0 km/h
55 03-07-2005 10:49:03 24.3 C 12.61 g/m*3 24.3 C 0 km/h
56 03-07-2005 11:01:04 24.3 C 12.17 g/m*3 24.3 C 0 km/h
57 03-07-2005 11:13:04 23.8 C 12.05 g/m*3 23.8 C 0 km/h
58 03-07-2005 11:25:03 24.4 C 11.57 g/m*3 24.4 C 0 km/h
59 03-07-2005 11:37:04 25.1 C 11.57 g/m*3 25.1 C 0 km/h
60 03-07-2005 11:49:03 25.5 C 10.89 g/m*3 25.5 C 0 km/h
61 03-07-2005 12:01:04 26.8 C 10.94 g/m*3 26.8 C 0 km/h
62 03-07-2005 12:13:04 27.7 C 10.16 g/m*3 27.7 C 0 km/h
63 03-07-2005 12:25:03 28.2 C 9.35 g/m*3 28.2 C 0 km/h
64 03-07-2005 12:37:03 27.9 C 8.92 g/m*3 27.9 C 0 km/h
65 03-07-2005 12:49:03 28.2 C 9.07 g/m*3 28.2 C 0 km/h
66 03-07-2005 13:01:04 28.5 C 9.22 g/m*3 28.5 C 0 km/h
67 03-07-2005 13:13:04 29 C 9.19 g/m*3 29 C 0 km/h
68 03-07-2005 13:25:03 30.6 C 9.71 g/m*3 30.6 C 0 km/h
69 03-07-2005 13:37:04 29.6 C 10.68 g/m*3 29.6 C 0 km/h
70 03-07-2005 13:49:03 30.4 C 10.54 g/m*3 30.4 C 0 km/h
71 03-07-2005 14:01:03 29.5 C 11.22 g/m*3 29.5 C 0 km/h
72 03-07-2005 14:13:03 30 C 10.92 g/m*3 30 C 0 km/h
73 03-07-2005 14:25:03 30.1 C 10.37 g/m*3 30.1 C 0 km/h
74 03-07-2005 14:37:03 30.5 C 10.28 g/m*3 30.5 C 0 km/h
75 03-07-2005 14:49:03 31 C 9.92 g/m*3 31 C 0 km/h
Sensor: Nr:Datum:Temp:Abs-Feuchte:Windchill:Wind:
Aussen-T/F 76 03-07-2005 15:01:03 29.9 C 9.95 g/m*3 29.9 C 0 km/h
77 03-07-2005 15:13:03 30.2 C 10.12 g/m*3 30.2 C 0 km/h
78 03-07-2005 15:25:03 31.6 C 9.58 g/m*3 31.6 C 0 km/h
79 03-07-2005 15:37:03 31.2 C 9.7 g/m*3 31.2 C 0 km/h
80 03-07-2005 15:49:03 30.6 C 10.96 g/m*3 30.6 C 0 km/h
81 03-07-2005 16:01:04 30.7 C 10.71 g/m*3 30.7 C 0 km/h
82 03-07-2005 16:13:04 30.7 C 10.71 g/m*3 30.7 C 0 km/h
83 03-07-2005 16:25:03 31 C 10.88 g/m*3 31 C 0 km/h
84 03-07-2005 16:37:04 31.3 C 10.41 g/m*3 31.3 C 0 km/h
85 03-07-2005 16:49:03 31.8 C 10.02 g/m*3 31.8 C 0 km/h
86 03-07-2005 17:01:05 31.4 C 9.81 g/m*3 31.4 C 0 km/h
87 03-07-2005 17:13:05 31.3 C 10.41 g/m*3 31.3 C 0 km/h
88 03-07-2005 17:25:03 30.9 C 10.19 g/m*3 30.9 C 0 km/h
89 03-07-2005 17:37:02 31.2 C 10.35 g/m*3 31.2 C 0 km/h
90 03-07-2005 17:49:01 31.5 C 10.52 g/m*3 31.5 C 0 km/h
91 03-07-2005 18:01:03 31.8 C 9.35 g/m*3 31.8 C 0 km/h
92 03-07-2005 18:13:03 31.9 C 10.41 g/m*3 31.9 C 0 km/h
93 03-07-2005 18:25:03 31.9 C 9.74 g/m*3 31.9 C 0 km/h
94 03-07-2005 18:37:03 31.9 C 10.07 g/m*3 31.9 C 0 km/h
95 03-07-2005 18:49:02 32.3 C 9.26 g/m*3 32.3 C 0 km/h
96 03-07-2005 19:01:02 31.9 C 10.07 g/m*3 31.9 C 0 km/h
97 03-07-2005 19:13:02 31.7 C 9.97 g/m*3 31.7 C 0 km/h
98 03-07-2005 19:25:02 30.9 C 11.46 g/m*3 30.9 C 0 km/h
99 03-07-2005 19:37:03 30.3 C 12.64 g/m*3 30.3 C 0 km/h
100 03-07-2005 19:49:01 29.9 C 12.37 g/m*3 29.9 C 0 km/h
Sensor: Nr:Datum:Temp:Abs-Feuchte:Windchill:Wind:
Aussen-T/F 101 03-07-2005 20:01:01 28.9 C 13.14 g/m*3 28.9 C 0 km/h
102 03-07-2005 20:13:01 27.9 C 13.25 g/m*3 27.9 C 0 km/h
103 03-07-2005 20:25:01 27.4 C 13.16 g/m*3 27.4 C 0 km/h
104 03-07-2005 20:37:01 27.3 C 13.08 g/m*3 27.3 C 0 km/h
105 03-07-2005 20:49:02 26.6 C 13.09 g/m*3 26.6 C 0 km/h
106 03-07-2005 21:01:03 26.1 C 12.73 g/m*3 26.1 C 0 km/h
107 03-07-2005 21:13:03 25.3 C 12.41 g/m*3 25.3 C 0 km/h
108 03-07-2005 21:25:02 24.7 C 12.45 g/m*3 24.7 C 0 km/h
109 03-07-2005 21:37:03 24.1 C 12.25 g/m*3 24.1 C 0 km/h
110 03-07-2005 21:49:02 23.9 C 12.11 g/m*3 23.9 C 0 km/h
111 03-07-2005 22:01:03 23.8 C 12.05 g/m*3 23.8 C 0 km/h
112 03-07-2005 22:13:03 23.6 C 12.12 g/m*3 23.6 C 0 km/h
113 03-07-2005 22:25:02 23 C 12.13 g/m*3 23 C 0 km/h
114 03-07-2005 22:37:02 22.7 C 12.12 g/m*3 22.7 C 0 km/h
115 03-07-2005 22:49:02 22.5 C 12.18 g/m*3 22.5 C 0 km/h
116 03-07-2005 23:01:02 22.3 C 12.05 g/m*3 22.3 C 0 km/h
117 03-07-2005 23:13:02 22.1 C 11.91 g/m*3 22.1 C 0 km/h
118 03-07-2005 23:25:01 22 C 12.03 g/m*3 22 C 0 km/h
119 03-07-2005 23:37:02 21.8 C 12.09 g/m*3 21.8 C 0 km/h
120 03-07-2005 23:49:01 21.7 C 12.02 g/m*3 21.7 C 0 km/h

Legende:
   Min
   Max


Maximal/Minimal-Werte vom 03.07.2005 - 03.07.2005

Sensor Min Max Avg
Temp
(Aussen-T/F)
17.2 °C
03-07-2005  06:25:03
32.3 °C
03-07-2005  18:49:02
24.03 °C
Abs-Feuchte
(Aussen-T/F)
8.92 g/m*3
03-07-2005  12:37:03
14.09 g/m*3
03-07-2005  00:00:04
12.1 g/m*3
Windchill
(Aussen-T/F)
17.2 C
03-07-2005  06:25:03
32.3 C
03-07-2005  18:49:02
23.83 C

Die Daten stammen von einer Davis Vantage Pro 2 Wetter-Station und werden unter Linux mit der Software wview2wettercgi und aufbereitet. Alle Angaben erfolgen ohne Gewähr für ihre Vollständigkeit oder Richtigkeit.
Kontakt: Rainer Krienke krienke@uni-koblenz.de . Meine Webseiten an der Uni Koblenz oder privat.
Version: $Revision: 0.78 $